sensor_id;sensor_type;location;lat;lon;timestamp;temperature;humidity
19817;DHT22;68323;49.394;8.434;2023-10-09T00:02:11;16.30;99.90
19817;DHT22;68323;49.394;8.434;2023-10-09T00:04:42;16.30;99.90
19817;DHT22;68323;49.394;8.434;2023-10-09T00:07:13;16.30;99.90
19817;DHT22;68323;49.394;8.434;2023-10-09T00:09:42;16.20;99.90
19817;DHT22;68323;49.394;8.434;2023-10-09T00:12:17;16.20;99.90
19817;DHT22;68323;49.394;8.434;2023-10-09T00:14:48;16.20;99.90
19817;DHT22;68323;49.394;8.434;2023-10-09T00:17:19;16.20;99.90
19817;DHT22;68323;49.394;8.434;2023-10-09T00:19:45;16.10;99.90
19817;DHT22;68323;49.394;8.434;2023-10-09T00:22:13;16.10;99.90
19817;DHT22;68323;49.394;8.434;2023-10-09T00:24:55;16.10;99.90
19817;DHT22;68323;49.394;8.434;2023-10-09T00:27:41;16.00;99.90
19817;DHT22;68323;49.394;8.434;2023-10-09T00:30:09;16.00;99.90
19817;DHT22;68323;49.394;8.434;2023-10-09T00:32:34;15.90;99.90
19817;DHT22;68323;49.394;8.434;2023-10-09T00:35:02;15.90;99.90
19817;DHT22;68323;49.394;8.434;2023-10-09T00:37:48;15.90;99.90
19817;DHT22;68323;49.394;8.434;2023-10-09T00:40:16;15.90;99.90
19817;DHT22;68323;49.394;8.434;2023-10-09T00:42:47;15.90;99.90
19817;DHT22;68323;49.394;8.434;2023-10-09T00:45:14;15.90;99.90
19817;DHT22;68323;49.394;8.434;2023-10-09T00:47:51;15.80;99.90
19817;DHT22;68323;49.394;8.434;2023-10-09T00:50:17;15.90;99.90
19817;DHT22;68323;49.394;8.434;2023-10-09T00:52:54;15.90;99.90
19817;DHT22;68323;49.394;8.434;2023-10-09T00:55:33;15.90;99.90
19817;DHT22;68323;49.394;8.434;2023-10-09T00:58:09;15.90;99.90
19817;DHT22;68323;49.394;8.434;2023-10-09T01:00:40;15.90;99.90
19817;DHT22;68323;49.394;8.434;2023-10-09T01:03:08;15.90;99.90
19817;DHT22;68323;49.394;8.434;2023-10-09T01:05:46;15.90;99.90
19817;DHT22;68323;49.394;8.434;2023-10-09T01:08:29;15.90;99.90
19817;DHT22;68323;49.394;8.434;2023-10-09T01:13:41;15.80;99.90
19817;DHT22;68323;49.394;8.434;2023-10-09T01:16:16;15.90;99.90
19817;DHT22;68323;49.394;8.434;2023-10-09T01:18:43;15.80;99.90
19817;DHT22;68323;49.394;8.434;2023-10-09T01:21:09;15.80;99.90
19817;DHT22;68323;49.394;8.434;2023-10-09T01:23:40;15.80;99.90
19817;DHT22;68323;49.394;8.434;2023-10-09T01:26:13;15.80;99.90
19817;DHT22;68323;49.394;8.434;2023-10-09T01:28:38;15.80;99.90
19817;DHT22;68323;49.394;8.434;2023-10-09T01:31:03;15.80;99.90
19817;DHT22;68323;49.394;8.434;2023-10-09T01:33:32;15.80;99.90
19817;DHT22;68323;49.394;8.434;2023-10-09T01:36:01;15.80;99.90
19817;DHT22;68323;49.394;8.434;2023-10-09T01:38:27;15.80;99.90
19817;DHT22;68323;49.394;8.434;2023-10-09T01:41:10;15.80;99.90
19817;DHT22;68323;49.394;8.434;2023-10-09T01:43:41;15.80;99.90
19817;DHT22;68323;49.394;8.434;2023-10-09T01:46:11;15.80;99.90
19817;DHT22;68323;49.394;8.434;2023-10-09T01:48:37;15.80;99.90
19817;DHT22;68323;49.394;8.434;2023-10-09T01:51:13;15.80;99.90
19817;DHT22;68323;49.394;8.434;2023-10-09T01:53:43;15.80;99.90
19817;DHT22;68323;49.394;8.434;2023-10-09T01:56:10;15.80;99.90
19817;DHT22;68323;49.394;8.434;2023-10-09T01:58:40;15.80;99.90
19817;DHT22;68323;49.394;8.434;2023-10-09T02:01:06;15.80;99.90
19817;DHT22;68323;49.394;8.434;2023-10-09T02:03:31;15.80;99.90
19817;DHT22;68323;49.394;8.434;2023-10-09T02:06:02;15.80;99.90
19817;DHT22;68323;49.394;8.434;2023-10-09T02:08:30;15.80;99.90
19817;DHT22;68323;49.394;8.434;2023-10-09T02:10:56;15.70;99.90
19817;DHT22;68323;49.394;8.434;2023-10-09T02:13:22;15.70;99.90
19817;DHT22;68323;49.394;8.434;2023-10-09T02:16:01;15.70;99.90
19817;DHT22;68323;49.394;8.434;2023-10-09T02:18:38;15.70;99.90
19817;DHT22;68323;49.394;8.434;2023-10-09T02:21:21;15.70;99.90
19817;DHT22;68323;49.394;8.434;2023-10-09T02:24:01;15.70;99.90
19817;DHT22;68323;49.394;8.434;2023-10-09T02:26:34;15.70;99.90
19817;DHT22;68323;49.394;8.434;2023-10-09T02:29:20;15.70;99.90
19817;DHT22;68323;49.394;8.434;2023-10-09T02:31:49;15.60;99.90
19817;DHT22;68323;49.394;8.434;2023-10-09T02:34:20;15.60;99.90
19817;DHT22;68323;49.394;8.434;2023-10-09T02:36:51;15.70;99.90
19817;DHT22;68323;49.394;8.434;2023-10-09T02:39:26;15.70;99.90
19817;DHT22;68323;49.394;8.434;2023-10-09T02:41:55;15.70;99.90
19817;DHT22;68323;49.394;8.434;2023-10-09T02:44:41;15.70;99.90
19817;DHT22;68323;49.394;8.434;2023-10-09T02:47:15;15.70;99.90
19817;DHT22;68323;49.394;8.434;2023-10-09T02:49:55;15.70;99.90
19817;DHT22;68323;49.394;8.434;2023-10-09T02:52:26;15.80;99.90
19817;DHT22;68323;49.394;8.434;2023-10-09T02:54:57;15.80;99.90
19817;DHT22;68323;49.394;8.434;2023-10-09T02:57:31;15.80;99.90
19817;DHT22;68323;49.394;8.434;2023-10-09T03:00:04;15.80;99.90
19817;DHT22;68323;49.394;8.434;2023-10-09T03:02:34;15.80;99.90
19817;DHT22;68323;49.394;8.434;2023-10-09T03:05:01;15.80;99.90
19817;DHT22;68323;49.394;8.434;2023-10-09T03:07:28;15.90;99.90
19817;DHT22;68323;49.394;8.434;2023-10-09T03:09:54;15.90;99.90
19817;DHT22;68323;49.394;8.434;2023-10-09T03:12:20;15.90;99.90
19817;DHT22;68323;49.394;8.434;2023-10-09T03:14:51;15.90;99.90
19817;DHT22;68323;49.394;8.434;2023-10-09T03:17:17;15.90;99.90
19817;DHT22;68323;49.394;8.434;2023-10-09T03:19:43;15.90;99.90
19817;DHT22;68323;49.394;8.434;2023-10-09T03:22:09;15.90;99.90
19817;DHT22;68323;49.394;8.434;2023-10-09T03:24:36;15.90;99.90
19817;DHT22;68323;49.394;8.434;2023-10-09T03:27:04;15.90;99.90
19817;DHT22;68323;49.394;8.434;2023-10-09T03:29:30;15.90;99.90
19817;DHT22;68323;49.394;8.434;2023-10-09T03:31:56;15.80;99.90
19817;DHT22;68323;49.394;8.434;2023-10-09T03:34:22;15.80;99.90
19817;DHT22;68323;49.394;8.434;2023-10-09T03:36:49;15.80;99.90
19817;DHT22;68323;49.394;8.434;2023-10-09T03:39:25;15.80;99.90
19817;DHT22;68323;49.394;8.434;2023-10-09T03:42:04;15.70;99.90
19817;DHT22;68323;49.394;8.434;2023-10-09T03:44:31;15.70;99.90
19817;DHT22;68323;49.394;8.434;2023-10-09T03:46:59;15.60;99.90
19817;DHT22;68323;49.394;8.434;2023-10-09T03:49:24;15.60;99.90
19817;DHT22;68323;49.394;8.434;2023-10-09T03:51:51;15.60;99.90
19817;DHT22;68323;49.394;8.434;2023-10-09T03:54:18;15.50;99.90
19817;DHT22;68323;49.394;8.434;2023-10-09T03:56:48;15.50;99.90
19817;DHT22;68323;49.394;8.434;2023-10-09T03:59:18;15.50;99.90
19817;DHT22;68323;49.394;8.434;2023-10-09T04:01:47;15.50;99.90
19817;DHT22;68323;49.394;8.434;2023-10-09T04:04:18;15.50;99.90
19817;DHT22;68323;49.394;8.434;2023-10-09T04:06:48;15.50;99.90
19817;DHT22;68323;49.394;8.434;2023-10-09T04:09:14;15.50;99.90
19817;DHT22;68323;49.394;8.434;2023-10-09T04:14:15;15.50;99.90
19817;DHT22;68323;49.394;8.434;2023-10-09T04:17:12;15.50;99.90
19817;DHT22;68323;49.394;8.434;2023-10-09T04:19:50;15.50;99.90
19817;DHT22;68323;49.394;8.434;2023-10-09T04:22:34;15.40;99.90
19817;DHT22;68323;49.394;8.434;2023-10-09T04:25:08;15.40;99.90
19817;DHT22;68323;49.394;8.434;2023-10-09T04:27:40;15.40;99.90
19817;DHT22;68323;49.394;8.434;2023-10-09T04:30:06;15.40;99.90
19817;DHT22;68323;49.394;8.434;2023-10-09T04:32:33;15.40;99.90
19817;DHT22;68323;49.394;8.434;2023-10-09T04:35:00;15.40;99.90
19817;DHT22;68323;49.394;8.434;2023-10-09T04:37:44;15.30;99.90
19817;DHT22;68323;49.394;8.434;2023-10-09T04:40:18;15.30;99.90
19817;DHT22;68323;49.394;8.434;2023-10-09T04:43:02;15.40;99.90
19817;DHT22;68323;49.394;8.434;2023-10-09T04:45:35;15.30;99.90
19817;DHT22;68323;49.394;8.434;2023-10-09T04:48:27;15.30;99.90
19817;DHT22;68323;49.394;8.434;2023-10-09T04:51:01;15.30;99.90
19817;DHT22;68323;49.394;8.434;2023-10-09T04:53:45;15.30;99.90
19817;DHT22;68323;49.394;8.434;2023-10-09T04:56:13;15.30;99.90
19817;DHT22;68323;49.394;8.434;2023-10-09T04:58:41;15.30;99.90
19817;DHT22;68323;49.394;8.434;2023-10-09T05:01:07;15.30;99.90
19817;DHT22;68323;49.394;8.434;2023-10-09T05:03:40;15.40;99.90
19817;DHT22;68323;49.394;8.434;2023-10-09T05:06:06;15.40;99.90
19817;DHT22;68323;49.394;8.434;2023-10-09T05:08:58;15.40;99.90
19817;DHT22;68323;49.394;8.434;2023-10-09T05:11:34;15.40;99.90
19817;DHT22;68323;49.394;8.434;2023-10-09T05:14:21;15.50;99.90
19817;DHT22;68323;49.394;8.434;2023-10-09T05:17:03;15.50;99.90
19817;DHT22;68323;49.394;8.434;2023-10-09T05:19:29;15.50;99.90
19817;DHT22;68323;49.394;8.434;2023-10-09T05:22:10;15.60;99.90
19817;DHT22;68323;49.394;8.434;2023-10-09T05:24:58;15.60;99.90
19817;DHT22;68323;49.394;8.434;2023-10-09T05:27:24;15.60;99.90
19817;DHT22;68323;49.394;8.434;2023-10-09T05:30:10;15.70;99.90
19817;DHT22;68323;49.394;8.434;2023-10-09T05:32:56;15.70;99.90
19817;DHT22;68323;49.394;8.434;2023-10-09T05:35:25;15.70;99.90
19817;DHT22;68323;49.394;8.434;2023-10-09T05:38:11;15.80;99.90
19817;DHT22;68323;49.394;8.434;2023-10-09T05:40:50;15.80;99.90
19817;DHT22;68323;49.394;8.434;2023-10-09T05:43:20;15.80;99.90
19817;DHT22;68323;49.394;8.434;2023-10-09T05:46:04;15.80;99.90
19817;DHT22;68323;49.394;8.434;2023-10-09T05:48:40;15.80;99.90
19817;DHT22;68323;49.394;8.434;2023-10-09T05:51:05;15.90;99.90
19817;DHT22;68323;49.394;8.434;2023-10-09T05:53:34;15.90;99.90
19817;DHT22;68323;49.394;8.434;2023-10-09T05:56:12;15.90;99.90
19817;DHT22;68323;49.394;8.434;2023-10-09T05:58:56;15.90;99.90
19817;DHT22;68323;49.394;8.434;2023-10-09T06:01:41;15.80;99.90
19817;DHT22;68323;49.394;8.434;2023-10-09T06:04:25;15.90;99.90
19817;DHT22;68323;49.394;8.434;2023-10-09T06:07:10;15.90;99.90
19817;DHT22;68323;49.394;8.434;2023-10-09T06:09:39;15.90;99.90
19817;DHT22;68323;49.394;8.434;2023-10-09T06:12:21;16.00;99.90
19817;DHT22;68323;49.394;8.434;2023-10-09T06:15:00;16.00;99.90
19817;DHT22;68323;49.394;8.434;2023-10-09T06:17:44;16.00;99.90
19817;DHT22;68323;49.394;8.434;2023-10-09T06:20:16;16.00;99.90
19817;DHT22;68323;49.394;8.434;2023-10-09T06:23:00;16.00;99.90
19817;DHT22;68323;49.394;8.434;2023-10-09T06:25:42;16.10;99.90
19817;DHT22;68323;49.394;8.434;2023-10-09T06:28:17;16.20;99.90
19817;DHT22;68323;49.394;8.434;2023-10-09T06:30:44;16.20;99.90
19817;DHT22;68323;49.394;8.434;2023-10-09T06:33:12;16.20;99.90
19817;DHT22;68323;49.394;8.434;2023-10-09T06:35:46;16.20;99.90
19817;DHT22;68323;49.394;8.434;2023-10-09T06:38:19;16.20;99.90
19817;DHT22;68323;49.394;8.434;2023-10-09T06:40:49;16.30;99.90
19817;DHT22;68323;49.394;8.434;2023-10-09T06:43:19;16.30;99.90
19817;DHT22;68323;49.394;8.434;2023-10-09T06:45:48;16.40;99.90
19817;DHT22;68323;49.394;8.434;2023-10-09T06:48:32;16.50;99.90
19817;DHT22;68323;49.394;8.434;2023-10-09T06:51:07;16.50;99.90
19817;DHT22;68323;49.394;8.434;2023-10-09T06:53:54;16.60;99.90
19817;DHT22;68323;49.394;8.434;2023-10-09T06:56:21;16.60;99.90
19817;DHT22;68323;49.394;8.434;2023-10-09T06:58:59;16.60;99.90
19817;DHT22;68323;49.394;8.434;2023-10-09T07:01:27;16.60;99.90
19817;DHT22;68323;49.394;8.434;2023-10-09T07:03:56;16.60;99.90
19817;DHT22;68323;49.394;8.434;2023-10-09T07:06:40;16.70;99.90
19817;DHT22;68323;49.394;8.434;2023-10-09T07:09:05;16.70;99.90
19817;DHT22;68323;49.394;8.434;2023-10-09T07:11:44;16.70;99.90
19817;DHT22;68323;49.394;8.434;2023-10-09T07:14:13;16.70;99.90
19817;DHT22;68323;49.394;8.434;2023-10-09T07:16:58;16.80;99.90
19817;DHT22;68323;49.394;8.434;2023-10-09T07:19:26;16.90;99.90
19817;DHT22;68323;49.394;8.434;2023-10-09T07:22:03;17.00;99.90
19817;DHT22;68323;49.394;8.434;2023-10-09T07:24:32;17.10;99.90
19817;DHT22;68323;49.394;8.434;2023-10-09T07:27:19;17.20;99.90
19817;DHT22;68323;49.394;8.434;2023-10-09T07:30:06;17.30;99.90
19817;DHT22;68323;49.394;8.434;2023-10-09T07:33:05;17.30;99.90
19817;DHT22;68323;49.394;8.434;2023-10-09T07:35:34;17.40;99.90
19817;DHT22;68323;49.394;8.434;2023-10-09T07:38:18;17.50;99.90
19817;DHT22;68323;49.394;8.434;2023-10-09T07:41:01;17.60;99.90
19817;DHT22;68323;49.394;8.434;2023-10-09T07:43:29;17.70;99.90
19817;DHT22;68323;49.394;8.434;2023-10-09T07:46:02;18.10;99.90
19817;DHT22;68323;49.394;8.434;2023-10-09T07:48:31;17.80;99.90
19817;DHT22;68323;49.394;8.434;2023-10-09T07:51:16;17.90;99.90
19817;DHT22;68323;49.394;8.434;2023-10-09T07:53:41;18.00;99.90
19817;DHT22;68323;49.394;8.434;2023-10-09T07:56:11;18.10;99.90
19817;DHT22;68323;49.394;8.434;2023-10-09T07:58:39;18.20;99.90
19817;DHT22;68323;49.394;8.434;2023-10-09T08:01:12;18.20;99.90
19817;DHT22;68323;49.394;8.434;2023-10-09T08:03:42;18.30;99.90
19817;DHT22;68323;49.394;8.434;2023-10-09T08:06:12;18.40;99.90
19817;DHT22;68323;49.394;8.434;2023-10-09T08:08:56;18.50;99.90
19817;DHT22;68323;49.394;8.434;2023-10-09T08:11:46;18.50;99.90
19817;DHT22;68323;49.394;8.434;2023-10-09T08:14:13;18.50;99.90
19817;DHT22;68323;49.394;8.434;2023-10-09T08:16:50;18.60;99.90
19817;DHT22;68323;49.394;8.434;2023-10-09T08:19:17;18.70;99.90
19817;DHT22;68323;49.394;8.434;2023-10-09T08:22:01;18.80;99.90
19817;DHT22;68323;49.394;8.434;2023-10-09T08:24:45;18.90;99.90
19817;DHT22;68323;49.394;8.434;2023-10-09T08:27:24;19.10;99.90
19817;DHT22;68323;49.394;8.434;2023-10-09T08:29:56;19.00;99.90
19817;DHT22;68323;49.394;8.434;2023-10-09T08:32:39;19.40;99.90
19817;DHT22;68323;49.394;8.434;2023-10-09T08:35:07;19.70;99.90
19817;DHT22;68323;49.394;8.434;2023-10-09T08:37:45;19.90;99.90
19817;DHT22;68323;49.394;8.434;2023-10-09T08:40:14;20.10;99.90
19817;DHT22;68323;49.394;8.434;2023-10-09T08:42:46;20.30;99.90
19817;DHT22;68323;49.394;8.434;2023-10-09T08:45:16;20.50;99.90
19817;DHT22;68323;49.394;8.434;2023-10-09T08:47:48;20.70;99.90
19817;DHT22;68323;49.394;8.434;2023-10-09T08:50:15;20.90;99.90
19817;DHT22;68323;49.394;8.434;2023-10-09T08:52:40;21.20;99.90
19817;DHT22;68323;49.394;8.434;2023-10-09T08:55:06;21.50;99.90
19817;DHT22;68323;49.394;8.434;2023-10-09T08:57:32;21.70;99.90
19817;DHT22;68323;49.394;8.434;2023-10-09T08:59:58;21.90;99.90
19817;DHT22;68323;49.394;8.434;2023-10-09T09:02:24;22.20;99.90
19817;DHT22;68323;49.394;8.434;2023-10-09T09:04:50;22.40;99.90
19817;DHT22;68323;49.394;8.434;2023-10-09T09:07:25;22.50;99.90
19817;DHT22;68323;49.394;8.434;2023-10-09T09:09:58;22.70;99.90
19817;DHT22;68323;49.394;8.434;2023-10-09T09:12:29;22.80;99.90
19817;DHT22;68323;49.394;8.434;2023-10-09T09:15:03;23.00;99.90
19817;DHT22;68323;49.394;8.434;2023-10-09T09:17:32;23.10;99.90
19817;DHT22;68323;49.394;8.434;2023-10-09T09:19:58;23.10;99.90
19817;DHT22;68323;49.394;8.434;2023-10-09T09:22:24;23.20;99.90
19817;DHT22;68323;49.394;8.434;2023-10-09T09:24:58;23.20;99.90
19817;DHT22;68323;49.394;8.434;2023-10-09T09:27:44;23.30;99.90
19817;DHT22;68323;49.394;8.434;2023-10-09T09:30:30;23.20;99.90
19817;DHT22;68323;49.394;8.434;2023-10-09T09:33:00;23.10;99.70
19817;DHT22;68323;49.394;8.434;2023-10-09T09:38:23;22.80;99.90
19817;DHT22;68323;49.394;8.434;2023-10-09T09:40:51;22.70;99.90
19817;DHT22;68323;49.394;8.434;2023-10-09T09:43:20;22.60;99.60
19817;DHT22;68323;49.394;8.434;2023-10-09T09:45:48;22.60;99.70
19817;DHT22;68323;49.394;8.434;2023-10-09T09:48:16;22.60;99.60
19817;DHT22;68323;49.394;8.434;2023-10-09T09:50:45;22.60;99.80
19817;DHT22;68323;49.394;8.434;2023-10-09T09:53:15;22.60;99.80
19817;DHT22;68323;49.394;8.434;2023-10-09T09:56:03;22.80;99.30
19817;DHT22;68323;49.394;8.434;2023-10-09T09:58:30;22.90;98.40
19817;DHT22;68323;49.394;8.434;2023-10-09T10:01:09;23.10;97.90
19817;DHT22;68323;49.394;8.434;2023-10-09T10:03:59;23.20;97.30
19817;DHT22;68323;49.394;8.434;2023-10-09T10:06:28;23.30;97.20
19817;DHT22;68323;49.394;8.434;2023-10-09T10:08:54;23.30;96.10
19817;DHT22;68323;49.394;8.434;2023-10-09T10:11:43;23.30;95.70
19817;DHT22;68323;49.394;8.434;2023-10-09T10:14:10;23.30;95.80
19817;DHT22;68323;49.394;8.434;2023-10-09T10:16:59;23.30;96.10
19817;DHT22;68323;49.394;8.434;2023-10-09T10:19:25;23.20;95.90
19817;DHT22;68323;49.394;8.434;2023-10-09T10:22:30;23.10;96.30
19817;DHT22;68323;49.394;8.434;2023-10-09T10:24:58;22.90;96.60
19817;DHT22;68323;49.394;8.434;2023-10-09T10:27:28;22.80;96.60
19817;DHT22;68323;49.394;8.434;2023-10-09T10:35:17;22.70;97.10
19817;DHT22;68323;49.394;8.434;2023-10-09T10:37:46;22.60;97.60
19817;DHT22;68323;49.394;8.434;2023-10-09T10:40:26;22.60;97.90
19817;DHT22;68323;49.394;8.434;2023-10-09T10:43:06;22.60;98.70
19817;DHT22;68323;49.394;8.434;2023-10-09T10:45:37;22.70;99.60
19817;DHT22;68323;49.394;8.434;2023-10-09T10:48:09;22.80;99.60
19817;DHT22;68323;49.394;8.434;2023-10-09T10:50:49;23.00;99.40
19817;DHT22;68323;49.394;8.434;2023-10-09T10:53:14;23.20;98.40
19817;DHT22;68323;49.394;8.434;2023-10-09T10:56:00;23.30;98.10
19817;DHT22;68323;49.394;8.434;2023-10-09T10:58:38;23.50;98.10
19817;DHT22;68323;49.394;8.434;2023-10-09T11:01:03;23.60;97.20
19817;DHT22;68323;49.394;8.434;2023-10-09T11:03:39;23.60;97.00
19817;DHT22;68323;49.394;8.434;2023-10-09T11:06:28;23.80;96.80
19817;DHT22;68323;49.394;8.434;2023-10-09T11:09:07;23.90;96.40
19817;DHT22;68323;49.394;8.434;2023-10-09T11:11:47;24.20;96.10
19817;DHT22;68323;49.394;8.434;2023-10-09T11:14:14;24.40;94.80
19817;DHT22;68323;49.394;8.434;2023-10-09T11:16:40;24.60;94.20
19817;DHT22;68323;49.394;8.434;2023-10-09T11:19:13;24.80;93.90
19817;DHT22;68323;49.394;8.434;2023-10-09T11:21:57;25.00;93.70
19817;DHT22;68323;49.394;8.434;2023-10-09T11:24:28;25.20;92.30
19817;DHT22;68323;49.394;8.434;2023-10-09T11:27:03;25.30;91.40
19817;DHT22;68323;49.394;8.434;2023-10-09T11:29:33;25.50;91.40
19817;DHT22;68323;49.394;8.434;2023-10-09T11:32:15;25.50;89.60
19817;DHT22;68323;49.394;8.434;2023-10-09T11:34:46;25.50;89.50
19817;DHT22;68323;49.394;8.434;2023-10-09T11:37:23;25.50;88.90
19817;DHT22;68323;49.394;8.434;2023-10-09T11:39:59;25.50;88.40
19817;DHT22;68323;49.394;8.434;2023-10-09T11:42:29;25.60;87.40
19817;DHT22;68323;49.394;8.434;2023-10-09T11:45:02;25.60;86.60
19817;DHT22;68323;49.394;8.434;2023-10-09T11:47:48;25.70;84.80
19817;DHT22;68323;49.394;8.434;2023-10-09T11:50:43;25.60;85.70
19817;DHT22;68323;49.394;8.434;2023-10-09T11:53:10;25.70;84.10
19817;DHT22;68323;49.394;8.434;2023-10-09T11:55:59;25.70;83.40
19817;DHT22;68323;49.394;8.434;2023-10-09T11:58:25;25.80;82.20
19817;DHT22;68323;49.394;8.434;2023-10-09T12:00:51;25.80;81.70
19817;DHT22;68323;49.394;8.434;2023-10-09T12:03:19;25.90;82.20
19817;DHT22;68323;49.394;8.434;2023-10-09T12:05:48;26.10;82.80
19817;DHT22;68323;49.394;8.434;2023-10-09T12:08:14;26.30;82.90
19817;DHT22;68323;49.394;8.434;2023-10-09T12:10:41;26.50;81.30
19817;DHT22;68323;49.394;8.434;2023-10-09T12:13:07;26.70;78.90
19817;DHT22;68323;49.394;8.434;2023-10-09T12:15:33;26.80;78.00
19817;DHT22;68323;49.394;8.434;2023-10-09T12:18:08;26.80;78.10
19817;DHT22;68323;49.394;8.434;2023-10-09T12:20:42;26.90;77.10
19817;DHT22;68323;49.394;8.434;2023-10-09T12:23:15;26.90;75.30
19817;DHT22;68323;49.394;8.434;2023-10-09T12:25:41;26.90;73.80
19817;DHT22;68323;49.394;8.434;2023-10-09T12:28:10;26.90;72.90
19817;DHT22;68323;49.394;8.434;2023-10-09T12:30:37;26.90;72.50
19817;DHT22;68323;49.394;8.434;2023-10-09T12:33:05;26.80;73.20
19817;DHT22;68323;49.394;8.434;2023-10-09T12:35:36;26.80;73.00
19817;DHT22;68323;49.394;8.434;2023-10-09T12:38:02;26.70;73.10
19817;DHT22;68323;49.394;8.434;2023-10-09T12:40:28;26.60;72.90
19817;DHT22;68323;49.394;8.434;2023-10-09T12:42:57;26.40;72.90
19817;DHT22;68323;49.394;8.434;2023-10-09T12:45:26;26.40;73.10
19817;DHT22;68323;49.394;8.434;2023-10-09T12:47:53;26.30;73.80
19817;DHT22;68323;49.394;8.434;2023-10-09T12:50:19;26.30;73.90
19817;DHT22;68323;49.394;8.434;2023-10-09T12:52:56;26.30;73.70
19817;DHT22;68323;49.394;8.434;2023-10-09T12:55:30;26.40;72.00
19817;DHT22;68323;49.394;8.434;2023-10-09T12:58:00;26.50;71.40
19817;DHT22;68323;49.394;8.434;2023-10-09T13:00:27;26.50;71.20
19817;DHT22;68323;49.394;8.434;2023-10-09T13:02:52;26.60;70.90
19817;DHT22;68323;49.394;8.434;2023-10-09T13:05:18;26.70;70.10
19817;DHT22;68323;49.394;8.434;2023-10-09T13:07:53;26.70;68.10
19817;DHT22;68323;49.394;8.434;2023-10-09T13:10:21;26.80;67.30
19817;DHT22;68323;49.394;8.434;2023-10-09T13:12:49;26.80;68.40
19817;DHT22;68323;49.394;8.434;2023-10-09T13:15:21;26.80;66.10
19817;DHT22;68323;49.394;8.434;2023-10-09T13:17:46;26.80;64.60
19817;DHT22;68323;49.394;8.434;2023-10-09T13:20:12;26.80;65.60
19817;DHT22;68323;49.394;8.434;2023-10-09T13:22:44;26.80;65.30
19817;DHT22;68323;49.394;8.434;2023-10-09T13:25:13;26.80;65.00
19817;DHT22;68323;49.394;8.434;2023-10-09T13:27:42;26.90;64.20
19817;DHT22;68323;49.394;8.434;2023-10-09T13:30:19;27.00;64.60
19817;DHT22;68323;49.394;8.434;2023-10-09T13:32:49;27.00;64.40
19817;DHT22;68323;49.394;8.434;2023-10-09T13:35:17;27.10;63.70
19817;DHT22;68323;49.394;8.434;2023-10-09T13:37:43;27.10;64.50
19817;DHT22;68323;49.394;8.434;2023-10-09T13:40:09;27.10;64.00
19817;DHT22;68323;49.394;8.434;2023-10-09T13:42:37;27.10;63.20
19817;DHT22;68323;49.394;8.434;2023-10-09T13:45:03;27.00;63.30
19817;DHT22;68323;49.394;8.434;2023-10-09T13:47:41;26.90;62.00
19817;DHT22;68323;49.394;8.434;2023-10-09T13:50:09;26.80;62.30
19817;DHT22;68323;49.394;8.434;2023-10-09T13:52:35;26.70;63.60
19817;DHT22;68323;49.394;8.434;2023-10-09T13:55:05;26.70;64.10
19817;DHT22;68323;49.394;8.434;2023-10-09T13:57:40;26.60;61.90
19817;DHT22;68323;49.394;8.434;2023-10-09T14:00:08;26.60;61.80
19817;DHT22;68323;49.394;8.434;2023-10-09T14:02:36;26.50;63.10
19817;DHT22;68323;49.394;8.434;2023-10-09T14:05:03;26.50;63.60
19817;DHT22;68323;49.394;8.434;2023-10-09T14:07:29;26.50;63.10
19817;DHT22;68323;49.394;8.434;2023-10-09T14:09:55;26.50;63.00
19817;DHT22;68323;49.394;8.434;2023-10-09T14:12:21;26.50;63.70
19817;DHT22;68323;49.394;8.434;2023-10-09T14:14:47;26.60;64.00
19817;DHT22;68323;49.394;8.434;2023-10-09T14:17:14;26.70;63.90
19817;DHT22;68323;49.394;8.434;2023-10-09T14:19:40;26.80;63.00
19817;DHT22;68323;49.394;8.434;2023-10-09T14:22:07;26.80;62.40
19817;DHT22;68323;49.394;8.434;2023-10-09T14:24:33;26.90;62.00
19817;DHT22;68323;49.394;8.434;2023-10-09T14:27:00;27.00;60.90
19817;DHT22;68323;49.394;8.434;2023-10-09T14:29:31;27.00;60.30
19817;DHT22;68323;49.394;8.434;2023-10-09T14:31:57;27.00;59.90
19817;DHT22;68323;49.394;8.434;2023-10-09T14:34:26;27.00;60.20
19817;DHT22;68323;49.394;8.434;2023-10-09T14:37:01;27.00;59.70
19817;DHT22;68323;49.394;8.434;2023-10-09T14:39:27;27.00;59.90
19817;DHT22;68323;49.394;8.434;2023-10-09T14:41:53;26.90;59.30
19817;DHT22;68323;49.394;8.434;2023-10-09T14:44:20;26.90;58.00
19817;DHT22;68323;49.394;8.434;2023-10-09T14:46:46;26.80;57.80
19817;DHT22;68323;49.394;8.434;2023-10-09T14:49:11;26.80;57.60
19817;DHT22;68323;49.394;8.434;2023-10-09T14:51:39;26.70;57.80
19817;DHT22;68323;49.394;8.434;2023-10-09T14:54:05;26.60;57.80
19817;DHT22;68323;49.394;8.434;2023-10-09T14:56:33;26.60;57.70
19817;DHT22;68323;49.394;8.434;2023-10-09T14:59:02;26.60;57.30
19817;DHT22;68323;49.394;8.434;2023-10-09T15:01:29;26.60;56.70
19817;DHT22;68323;49.394;8.434;2023-10-09T15:03:58;26.60;56.70
19817;DHT22;68323;49.394;8.434;2023-10-09T15:06:28;26.50;56.50
19817;DHT22;68323;49.394;8.434;2023-10-09T15:08:58;26.40;56.50
19817;DHT22;68323;49.394;8.434;2023-10-09T15:11:26;26.40;56.70
19817;DHT22;68323;49.394;8.434;2023-10-09T15:13:54;26.30;56.70
19817;DHT22;68323;49.394;8.434;2023-10-09T15:16:21;26.30;56.90
19817;DHT22;68323;49.394;8.434;2023-10-09T15:18:47;26.20;57.30
19817;DHT22;68323;49.394;8.434;2023-10-09T15:21:20;26.20;57.60
19817;DHT22;68323;49.394;8.434;2023-10-09T15:23:53;26.10;57.70
19817;DHT22;68323;49.394;8.434;2023-10-09T15:26:20;26.00;57.90
19817;DHT22;68323;49.394;8.434;2023-10-09T15:28:46;26.00;58.00
19817;DHT22;68323;49.394;8.434;2023-10-09T15:31:12;25.90;58.30
19817;DHT22;68323;49.394;8.434;2023-10-09T15:33:38;25.90;58.30
19817;DHT22;68323;49.394;8.434;2023-10-09T15:36:15;25.80;58.30
19817;DHT22;68323;49.394;8.434;2023-10-09T15:38:43;25.70;58.30
19817;DHT22;68323;49.394;8.434;2023-10-09T15:41:09;25.70;58.50
19817;DHT22;68323;49.394;8.434;2023-10-09T15:43:35;25.70;58.10
19817;DHT22;68323;49.394;8.434;2023-10-09T15:46:01;25.60;57.80
19817;DHT22;68323;49.394;8.434;2023-10-09T15:48:27;25.60;57.60
19817;DHT22;68323;49.394;8.434;2023-10-09T15:50:52;25.50;57.00
19817;DHT22;68323;49.394;8.434;2023-10-09T15:53:18;25.50;57.10
19817;DHT22;68323;49.394;8.434;2023-10-09T15:55:45;25.40;57.20
19817;DHT22;68323;49.394;8.434;2023-10-09T15:58:10;25.40;56.60
19817;DHT22;68323;49.394;8.434;2023-10-09T16:00:36;25.40;56.10
19817;DHT22;68323;49.394;8.434;2023-10-09T16:03:03;25.30;55.80
19817;DHT22;68323;49.394;8.434;2023-10-09T16:05:30;25.30;56.20
19817;DHT22;68323;49.394;8.434;2023-10-09T16:07:57;25.20;56.60
19817;DHT22;68323;49.394;8.434;2023-10-09T16:10:23;25.10;57.30
19817;DHT22;68323;49.394;8.434;2023-10-09T16:12:50;25.00;58.00
19817;DHT22;68323;49.394;8.434;2023-10-09T16:15:17;24.90;58.20